Aviation Digital Data Service (ADDS)

Output produced by TAFs form (0254 UTC 21 January 2018)
found at http://www.aviationweather.gov/adds/tafs/
 
KFLO 210153Z 26003KT 6SM HZ CLR 06/00 A3022 RMK AO2 SLP232 T00560000
KFLO 202337Z 2100/2124 VRB05KT P6SM FEW120 SCT250